No particular awareness of the weather is required.    There are no Weather-warnings


Meteo18 Weather Cam more information Meteo18 Weather Cam


Thunder radar more information blitzortung!


Rain radar more information rain snow radar


Visit our other weather sites:

Template documentation
and downloads

And another site



Weather Underground History page Text

Daily Summary for February 26, 2018 Units:  Both    English   Metric
« Previous Day
Next Day »
Daily Weekly Monthly Yearly Custom
  High: Low: Average:
Temperature: TemperatureC °F /  -17.8 °C -5.4 °F /  -20.8 °C -3.5 °F /  -19.7 °C
Dew Point: DewpointC °F /  -17.8 °C -14.3 °F /  -25.7 °C -12.7 °F /  -24.8 °C
Humidity: Humidity % 39 % 49 %
Wind Speed: WindSpeedKMH mph /  0 km/h - 17.6 mph /  28.3 km/h
Wind Gust: WindSpeedGustKMH mph /  0 km/h - -
Wind:- - ENE
Pressure: PressurehPa in /  0 hPa 1018.2 in /  34476.3 hPa -
Precipitation: 0.3 in /  7.62 mm    
Historical Graphs
 
 
Tabular Data for February 26, 2018
Time Temperature Dew Point Pressure Wind Wind Speed Wind Gust Humidity Rainfall Rate (Hourly)
TemperatureC °F /  -17.8 °C DewpointC °F /  -17.8 °C PressurehPa in /  0 hPa Calm     Humidity % HourlyPrecipMM in /  0 mm
00:01 -2.6 °F /  -19.2 °C -11.6 °F /  -24.2 °C 1019.5 in /  34520.3 hPa North 6.4 mph /  10.3 km/h 22.5 mph /  36.2 km/h 50 % 0.0 in /  0 mm
00:07 -2.7 °F /  -19.3 °C -11.7 °F /  -24.3 °C 1019.5 in /  34520.3 hPa NNE 14.3 mph /  23 km/h 20.9 mph /  33.6 km/h 50 % 0.0 in /  0 mm
00:13 -2.7 °F /  -19.3 °C -11.7 °F /  -24.3 °C 1019.5 in /  34520.3 hPa North 19.5 mph /  31.4 km/h 19.5 mph /  31.4 km/h 50 % 0.0 in /  0 mm
00:19 -2.7 °F /  -19.3 °C -11.7 °F /  -24.3 °C 1019.5 in /  34520.3 hPa NNE 6.4 mph /  10.3 km/h 19.3 mph /  31.1 km/h 50 % 0.0 in /  0 mm
00:25 -2.8 °F /  -19.3 °C -11.8 °F /  -24.3 °C 1019.9 in /  34533.8 hPa NNE 19.5 mph /  31.4 km/h 22.5 mph /  36.2 km/h 50 % 0.0 in /  0 mm
00:31 -2.8 °F /  -19.3 °C -12.3 °F /  -24.6 °C 1019.9 in /  34533.8 hPa NNE 19.5 mph /  31.4 km/h 27.4 mph /  44.1 km/h 48 % 0.0 in /  0 mm
00:37 -2.8 °F /  -19.3 °C -12.3 °F /  -24.6 °C 1019.9 in /  34533.8 hPa NE 9.7 mph /  15.6 km/h 27.4 mph /  44.1 km/h 48 % 0.0 in /  0 mm
00:43 -2.8 °F /  -19.3 °C -12.3 °F /  -24.6 °C 1019.9 in /  34533.8 hPa NE 20.9 mph /  33.6 km/h 27.4 mph /  44.1 km/h 48 % 0.0 in /  0 mm
00:49 -2.8 °F /  -19.3 °C -12.0 °F /  -24.4 °C 1019.9 in /  34533.8 hPa NE 25.9 mph /  41.7 km/h 29.0 mph /  46.7 km/h 49 % 0.0 in /  0 mm
00:55 -2.9 °F /  -19.4 °C -12.4 °F /  -24.7 °C 1019.5 in /  34520.3 hPa NNE 17.7 mph /  28.5 km/h 25.7 mph /  41.4 km/h 48 % 0.0 in /  0 mm
01:01 -2.9 °F /  -19.4 °C -12.6 °F /  -24.8 °C 1019.5 in /  34520.3 hPa NE 22.7 mph /  36.5 km/h 27.4 mph /  44.1 km/h 47 % 0.0 in /  0 mm
01:07 -2.9 °F /  -19.4 °C -12.4 °F /  -24.7 °C 1019.5 in /  34520.3 hPa NNE 13.0 mph /  20.9 km/h 25.7 mph /  41.4 km/h 48 % 0.0 in /  0 mm
01:13 -2.9 °F /  -19.4 °C -12.6 °F /  -24.8 °C 1019.9 in /  34533.8 hPa NE 20.9 mph /  33.6 km/h 30.6 mph /  49.2 km/h 47 % 0.0 in /  0 mm
01:19 -2.9 °F /  -19.4 °C -12.4 °F /  -24.7 °C 1019.5 in /  34520.3 hPa NE 27.4 mph /  44.1 km/h 29.0 mph /  46.7 km/h 48 % 0.0 in /  0 mm
01:25 -3.0 °F /  -19.4 °C -12.7 °F /  -24.8 °C 1019.9 in /  34533.8 hPa NE 30.6 mph /  49.2 km/h 30.6 mph /  49.2 km/h 47 % 0.0 in /  0 mm
01:31 -3.1 °F /  -19.5 °C -12.6 °F /  -24.8 °C 1019.9 in /  34533.8 hPa NE 24.1 mph /  38.8 km/h 24.1 mph /  38.8 km/h 48 % 0.0 in /  0 mm
01:37 -3.1 °F /  -19.5 °C -12.6 °F /  -24.8 °C 1019.5 in /  34520.3 hPa North 4.7 mph /  7.6 km/h 17.7 mph /  28.5 km/h 48 % 0.0 in /  0 mm
01:43 -3.2 °F /  -19.6 °C -12.7 °F /  -24.8 °C 1019.5 in /  34520.3 hPa NE 13.0 mph /  20.9 km/h 29.0 mph /  46.7 km/h 48 % 0.0 in /  0 mm
01:49 -3.2 °F /  -19.6 °C -12.9 °F /  -24.9 °C 1019.5 in /  34520.3 hPa North 14.3 mph /  23 km/h 25.7 mph /  41.4 km/h 47 % 0.0 in /  0 mm
01:55 -3.2 °F /  -19.6 °C -12.7 °F /  -24.8 °C 1019.5 in /  34520.3 hPa NE 25.9 mph /  41.7 km/h 27.4 mph /  44.1 km/h 48 % 0.0 in /  0 mm
02:01 -3.3 °F /  -19.6 °C -12.7 °F /  -24.8 °C 1019.5 in /  34520.3 hPa NNE 11.1 mph /  17.9 km/h 30.6 mph /  49.2 km/h 48 % 0.0 in /  0 mm
02:08 -3.3 °F /  -19.6 °C -12.7 °F /  -24.8 °C 1019.5 in /  34520.3 hPa NE 7.9 mph /  12.7 km/h 25.7 mph /  41.4 km/h 48 % 0.0 in /  0 mm
02:14 -3.4 °F /  -19.7 °C -12.6 °F /  -24.8 °C 1019.5 in /  34520.3 hPa NE 9.7 mph /  15.6 km/h 24.1 mph /  38.8 km/h 49 % 0.0 in /  0 mm
02:19 -3.5 °F /  -19.7 °C -12.7 °F /  -24.8 °C 1019.5 in /  34520.3 hPa NNE 13.0 mph /  20.9 km/h 24.1 mph /  38.8 km/h 49 % 0.0 in /  0 mm
02:26 -3.5 °F /  -19.7 °C -12.4 °F /  -24.7 °C 1019.5 in /  34520.3 hPa NNE 20.9 mph /  33.6 km/h 22.5 mph /  36.2 km/h 50 % 0.0 in /  0 mm
02:32 -3.6 °F /  -19.8 °C -12.3 °F /  -24.6 °C 1019.5 in /  34520.3 hPa NNE 6.4 mph /  10.3 km/h 14.5 mph /  23.3 km/h 51 % 0.0 in /  0 mm
02:38 -3.7 °F /  -19.8 °C -12.4 °F /  -24.7 °C 1019.5 in /  34520.3 hPa NNE 11.1 mph /  17.9 km/h 25.7 mph /  41.4 km/h 51 % 0.0 in /  0 mm
02:44 -3.7 °F /  -19.8 °C -12.6 °F /  -24.8 °C 1019.5 in /  34520.3 hPa NE 4.7 mph /  7.6 km/h 14.5 mph /  23.3 km/h 50 % 0.0 in /  0 mm
02:50 -3.8 °F /  -19.9 °C -12.5 °F /  -24.7 °C 1019.5 in /  34520.3 hPa North 9.7 mph /  15.6 km/h 22.5 mph /  36.2 km/h 51 % 0.0 in /  0 mm
02:56 -3.8 °F /  -19.9 °C -12.5 °F /  -24.7 °C 1019.5 in /  34520.3 hPa NE 25.9 mph /  41.7 km/h 25.9 mph /  41.7 km/h 51 % 0.0 in /  0 mm
03:02 -3.8 °F /  -19.9 °C -12.5 °F /  -24.7 °C 1019.5 in /  34520.3 hPa NNE 11.1 mph /  17.9 km/h 25.7 mph /  41.4 km/h 51 % 0.0 in /  0 mm
03:08 -3.9 °F /  -19.9 °C -12.6 °F /  -24.8 °C 1019.2 in /  34510.1 hPa NNE 17.7 mph /  28.5 km/h 22.5 mph /  36.2 km/h 51 % 0.0 in /  0 mm
03:14 -3.9 °F /  -19.9 °C -12.8 °F /  -24.9 °C 1019.2 in /  34510.1 hPa NE 14.3 mph /  23 km/h 24.1 mph /  38.8 km/h 50 % 0.0 in /  0 mm
03:20 -3.9 °F /  -19.9 °C -12.6 °F /  -24.8 °C 1019.2 in /  34510.1 hPa NE 16.3 mph /  26.2 km/h 29.0 mph /  46.7 km/h 51 % 0.0 in /  0 mm
03:26 -4.1 °F /  -20.1 °C -12.5 °F /  -24.7 °C 1019.2 in /  34510.1 hPa NNE 14.3 mph /  23 km/h 22.5 mph /  36.2 km/h 52 % 0.0 in /  0 mm
03:32 -4.1 °F /  -20.1 °C -12.5 °F /  -24.7 °C 1019.5 in /  34520.3 hPa NNW 13.0 mph /  20.9 km/h 24.1 mph /  38.8 km/h 52 % 0.0 in /  0 mm
03:38 -4.1 °F /  -20.1 °C -12.7 °F /  -24.8 °C 1019.5 in /  34520.3 hPa NNE 7.9 mph /  12.7 km/h 27.4 mph /  44.1 km/h 51 % 0.0 in /  0 mm
03:44 -4.2 °F /  -20.1 °C -12.4 °F /  -24.7 °C 1019.2 in /  34510.1 hPa North 3.2 mph /  5.1 km/h 22.5 mph /  36.2 km/h 53 % 0.0 in /  0 mm
03:50 -4.3 °F /  -20.2 °C -12.4 °F /  -24.7 °C 1019.5 in /  34520.3 hPa NNW 4.7 mph /  7.6 km/h 22.5 mph /  36.2 km/h 53 % 0.0 in /  0 mm
03:56 -4.4 °F /  -20.2 °C -12.5 °F /  -24.7 °C 1019.5 in /  34520.3 hPa NW 3.2 mph /  5.1 km/h 20.9 mph /  33.6 km/h 53 % 0.0 in /  0 mm
04:02 -4.4 °F /  -20.2 °C -12.3 °F /  -24.6 °C 1019.5 in /  34520.3 hPa NE 4.7 mph /  7.6 km/h 14.5 mph /  23.3 km/h 54 % 0.0 in /  0 mm
04:08 -4.4 °F /  -20.2 °C -12.5 °F /  -24.7 °C 1019.5 in /  34520.3 hPa NE 6.4 mph /  10.3 km/h 27.4 mph /  44.1 km/h 53 % 0.0 in /  0 mm
04:14 -4.4 °F /  -20.2 °C -12.3 °F /  -24.6 °C 1019.5 in /  34520.3 hPa NNE 16.3 mph /  26.2 km/h 25.7 mph /  41.4 km/h 54 % 0.0 in /  0 mm
04:20 -4.5 °F /  -20.3 °C -12.4 °F /  -24.7 °C 1019.5 in /  34520.3 hPa NE 22.7 mph /  36.5 km/h 22.7 mph /  36.5 km/h 54 % 0.0 in /  0 mm
04:26 -4.6 °F /  -20.3 °C -12.3 °F /  -24.6 °C 1019.5 in /  34520.3 hPa WNW 9.7 mph /  15.6 km/h 17.7 mph /  28.5 km/h 55 % 0.0 in /  0 mm
04:32 -4.7 °F /  -20.4 °C -12.1 °F /  -24.5 °C 1019.5 in /  34520.3 hPa North 7.9 mph /  12.7 km/h 14.5 mph /  23.3 km/h 56 % 0.0 in /  0 mm
04:38 -4.7 °F /  -20.4 °C -12.4 °F /  -24.7 °C 1019.5 in /  34520.3 hPa NNE 6.4 mph /  10.3 km/h 19.3 mph /  31.1 km/h 55 % 0.0 in /  0 mm
04:44 -4.8 °F /  -20.4 °C -12.5 °F /  -24.7 °C 1019.5 in /  34520.3 hPa NNE 17.7 mph /  28.5 km/h 20.9 mph /  33.6 km/h 55 % 0.0 in /  0 mm
04:50 -4.8 °F /  -20.4 °C -12.5 °F /  -24.7 °C 1019.5 in /  34520.3 hPa NNE 9.7 mph /  15.6 km/h 25.7 mph /  41.4 km/h 55 % 0.0 in /  0 mm
04:56 -4.8 °F /  -20.4 °C -12.5 °F /  -24.7 °C 1019.5 in /  34520.3 hPa NE 20.9 mph /  33.6 km/h 24.1 mph /  38.8 km/h 55 % 0.0 in /  0 mm
05:02 -4.8 °F /  -20.4 °C -12.2 °F /  -24.6 °C 1019.5 in /  34520.3 hPa NNE 16.3 mph /  26.2 km/h 20.9 mph /  33.6 km/h 56 % 0.0 in /  0 mm
05:08 -4.8 °F /  -20.4 °C -12.5 °F /  -24.7 °C 1019.5 in /  34520.3 hPa NNW 7.9 mph /  12.7 km/h 24.1 mph /  38.8 km/h 55 % 0.0 in /  0 mm
05:14 -4.8 °F /  -20.4 °C -12.5 °F /  -24.7 °C 1019.5 in /  34520.3 hPa North 24.1 mph /  38.8 km/h 25.7 mph /  41.4 km/h 55 % 0.0 in /  0 mm
05:20 -4.9 °F /  -20.5 °C -12.6 °F /  -24.8 °C 1019.5 in /  34520.3 hPa NE 14.3 mph /  23 km/h 19.3 mph /  31.1 km/h 55 % 0.0 in /  0 mm
05:26 -4.9 °F /  -20.5 °C -12.6 °F /  -24.8 °C 1019.5 in /  34520.3 hPa North 6.4 mph /  10.3 km/h 19.3 mph /  31.1 km/h 55 % 0.0 in /  0 mm
05:32 -4.9 °F /  -20.5 °C -12.3 °F /  -24.6 °C 1019.5 in /  34520.3 hPa NE 9.7 mph /  15.6 km/h 24.1 mph /  38.8 km/h 56 % 0.0 in /  0 mm
05:38 -4.8 °F /  -20.4 °C -12.2 °F /  -24.6 °C 1019.5 in /  34520.3 hPa NNE 6.4 mph /  10.3 km/h 20.9 mph /  33.6 km/h 56 % 0.0 in /  0 mm
05:44 -4.7 °F /  -20.4 °C -12.1 °F /  -24.5 °C 1019.2 in /  34510.1 hPa NE 7.9 mph /  12.7 km/h 17.7 mph /  28.5 km/h 56 % 0.0 in /  0 mm
05:50 -4.7 °F /  -20.4 °C -12.1 °F /  -24.5 °C 1019.2 in /  34510.1 hPa NE 14.3 mph /  23 km/h 22.5 mph /  36.2 km/h 56 % 0.0 in /  0 mm
05:56 -4.7 °F /  -20.4 °C -11.9 °F /  -24.4 °C 1019.2 in /  34510.1 hPa NE 16.3 mph /  26.2 km/h 24.1 mph /  38.8 km/h 57 % 0.0 in /  0 mm
06:02 -4.7 °F /  -20.4 °C -11.9 °F /  -24.4 °C 1019.2 in /  34510.1 hPa NNE 13.0 mph /  20.9 km/h 20.9 mph /  33.6 km/h 57 % 0.0 in /  0 mm
06:08 -4.8 °F /  -20.4 °C -12.0 °F /  -24.4 °C 1019.2 in /  34510.1 hPa NW 13.0 mph /  20.9 km/h 19.3 mph /  31.1 km/h 57 % 0.0 in /  0 mm
06:14 -4.8 °F /  -20.4 °C -12.0 °F /  -24.4 °C 1019.5 in /  34520.3 hPa NE 4.7 mph /  7.6 km/h 25.7 mph /  41.4 km/h 57 % 0.0 in /  0 mm
06:20 -4.8 °F /  -20.4 °C -12.0 °F /  -24.4 °C 1019.5 in /  34520.3 hPa NNE 19.5 mph /  31.4 km/h 20.9 mph /  33.6 km/h 57 % 0.0 in /  0 mm
06:26 -4.8 °F /  -20.4 °C -12.0 °F /  -24.4 °C 1019.5 in /  34520.3 hPa NNE 13.0 mph /  20.9 km/h 24.1 mph /  38.8 km/h 57 % 0.0 in /  0 mm
06:32 -4.8 °F /  -20.4 °C -12.0 °F /  -24.4 °C 1019.2 in /  34510.1 hPa NE 16.3 mph /  26.2 km/h 19.3 mph /  31.1 km/h 57 % 0.0 in /  0 mm
06:38 -4.9 °F /  -20.5 °C -12.1 °F /  -24.5 °C 1019.5 in /  34520.3 hPa NNE 22.7 mph /  36.5 km/h 32.2 mph /  51.8 km/h 57 % 0.0 in /  0 mm
06:44 -4.9 °F /  -20.5 °C -11.9 °F /  -24.4 °C 1019.5 in /  34520.3 hPa North 6.4 mph /  10.3 km/h 25.7 mph /  41.4 km/h 58 % 0.0 in /  0 mm
06:50 -4.9 °F /  -20.5 °C -11.9 °F /  -24.4 °C 1019.2 in /  34510.1 hPa North 11.1 mph /  17.9 km/h 25.7 mph /  41.4 km/h 58 % 0.0 in /  0 mm
06:56 -5.0 °F /  -20.6 °C -11.8 °F /  -24.3 °C 1019.2 in /  34510.1 hPa NNE 4.7 mph /  7.6 km/h 22.5 mph /  36.2 km/h 59 % 0.0 in /  0 mm
07:02 -5.1 °F /  -20.6 °C -11.9 °F /  -24.4 °C 1019.2 in /  34510.1 hPa North 9.7 mph /  15.6 km/h 14.5 mph /  23.3 km/h 59 % 0.0 in /  0 mm
07:08 -5.1 °F /  -20.6 °C -11.9 °F /  -24.4 °C 1019.2 in /  34510.1 hPa NNE 7.9 mph /  12.7 km/h 12.9 mph /  20.8 km/h 59 % 0.0 in /  0 mm
07:14 -5.2 °F /  -20.7 °C -12.0 °F /  -24.4 °C 1019.2 in /  34510.1 hPa NNE 1.4 mph /  2.3 km/h 19.3 mph /  31.1 km/h 59 % 0.0 in /  0 mm
07:20 -5.1 °F /  -20.6 °C -12.1 °F /  -24.5 °C 1019.2 in /  34510.1 hPa NNW 11.1 mph /  17.9 km/h 20.9 mph /  33.6 km/h 58 % 0.0 in /  0 mm
07:26 -5.1 °F /  -20.6 °C -12.1 °F /  -24.5 °C 1019.2 in /  34510.1 hPa NNE 19.5 mph /  31.4 km/h 22.5 mph /  36.2 km/h 58 % 0.0 in /  0 mm
07:32 -5.0 °F /  -20.6 °C -12.4 °F /  -24.7 °C 1019.2 in /  34510.1 hPa NNE 19.5 mph /  31.4 km/h 30.6 mph /  49.2 km/h 56 % 0.0 in /  0 mm
07:38 -4.9 °F /  -20.5 °C -12.3 °F /  -24.6 °C 1019.2 in /  34510.1 hPa North 13.0 mph /  20.9 km/h 27.4 mph /  44.1 km/h 56 % 0.0 in /  0 mm
07:44 -5.0 °F /  -20.6 °C -12.4 °F /  -24.7 °C 1019.5 in /  34520.3 hPa NNE 20.9 mph /  33.6 km/h 27.4 mph /  44.1 km/h 56 % 0.0 in /  0 mm
07:50 -4.9 °F /  -20.5 °C -12.3 °F /  -24.6 °C 1019.5 in /  34520.3 hPa North 17.7 mph /  28.5 km/h 29.0 mph /  46.7 km/h 56 % 0.0 in /  0 mm
07:56 -4.9 °F /  -20.5 °C -12.6 °F /  -24.8 °C 1019.5 in /  34520.3 hPa NNE 22.7 mph /  36.5 km/h 30.6 mph /  49.2 km/h 55 % 0.0 in /  0 mm
08:02 -4.9 °F /  -20.5 °C -12.6 °F /  -24.8 °C 1019.5 in /  34520.3 hPa NE 22.7 mph /  36.5 km/h 24.1 mph /  38.8 km/h 55 % 0.0 in /  0 mm
08:08 -4.8 °F /  -20.4 °C -12.7 °F /  -24.8 °C 1019.5 in /  34520.3 hPa NNE 20.9 mph /  33.6 km/h 37.0 mph /  59.5 km/h 54 % 0.0 in /  0 mm
08:14 -4.8 °F /  -20.4 °C -12.7 °F /  -24.8 °C 1019.5 in /  34520.3 hPa NNE 27.4 mph /  44.1 km/h 32.2 mph /  51.8 km/h 54 % 0.0 in /  0 mm
08:20 -4.8 °F /  -20.4 °C -12.7 °F /  -24.8 °C 1019.5 in /  34520.3 hPa ENE 7.9 mph /  12.7 km/h 29.0 mph /  46.7 km/h 54 % 0.0 in /  0 mm
08:26 -4.7 °F /  -20.4 °C -12.6 °F /  -24.8 °C 1019.5 in /  34520.3 hPa NE 16.3 mph /  26.2 km/h 27.4 mph /  44.1 km/h 54 % 0.0 in /  0 mm
08:32 -4.7 °F /  -20.4 °C -12.6 °F /  -24.8 °C 1019.5 in /  34520.3 hPa NNE 38.6 mph /  62.1 km/h 38.6 mph /  62.1 km/h 54 % 0.0 in /  0 mm
08:38 -4.7 °F /  -20.4 °C -12.6 °F /  -24.8 °C 1019.5 in /  34520.3 hPa NE 22.7 mph /  36.5 km/h 37.0 mph /  59.5 km/h 54 % 0.0 in /  0 mm
08:44 -4.6 °F /  -20.3 °C -12.3 °F /  -24.6 °C 1019.5 in /  34520.3 hPa NE 9.7 mph /  15.6 km/h 24.1 mph /  38.8 km/h 55 % 0.0 in /  0 mm
08:50 -4.6 °F /  -20.3 °C -12.5 °F /  -24.7 °C 1019.5 in /  34520.3 hPa NE 11.1 mph /  17.9 km/h 30.6 mph /  49.2 km/h 54 % 0.0 in /  0 mm
08:56 -4.5 °F /  -20.3 °C -12.2 °F /  -24.6 °C 1019.5 in /  34520.3 hPa NE 14.3 mph /  23 km/h 27.4 mph /  44.1 km/h 55 % 0.0 in /  0 mm
09:02 -4.4 °F /  -20.2 °C -12.3 °F /  -24.6 °C 1019.5 in /  34520.3 hPa NNE 30.6 mph /  49.2 km/h 32.2 mph /  51.8 km/h 54 % 0.0 in /  0 mm
09:08 -4.4 °F /  -20.2 °C -12.3 °F /  -24.6 °C 1019.9 in /  34533.8 hPa NE 19.5 mph /  31.4 km/h 37.0 mph /  59.5 km/h 54 % 0.0 in /  0 mm
09:14 -4.5 °F /  -20.3 °C -12.6 °F /  -24.8 °C 1019.5 in /  34520.3 hPa NE 27.4 mph /  44.1 km/h 40.2 mph /  64.7 km/h 53 % 0.0 in /  0 mm
09:20 -4.4 °F /  -20.2 °C -12.3 °F /  -24.6 °C 1019.5 in /  34520.3 hPa NE 37.0 mph /  59.5 km/h 45.1 mph /  72.6 km/h 54 % 0.0 in /  0 mm
09:26 -4.4 °F /  -20.2 °C -12.3 °F /  -24.6 °C 1019.5 in /  34520.3 hPa NE 19.5 mph /  31.4 km/h 35.4 mph /  57 km/h 54 % 0.0 in /  0 mm
09:32 -4.3 °F /  -20.2 °C -12.2 °F /  -24.6 °C 1019.5 in /  34520.3 hPa NE 24.1 mph /  38.8 km/h 27.4 mph /  44.1 km/h 54 % 0.0 in /  0 mm
09:38 -4.2 °F /  -20.1 °C -12.4 °F /  -24.7 °C 1019.5 in /  34520.3 hPa NE 32.0 mph /  51.5 km/h 41.8 mph /  67.3 km/h 53 % 0.0 in /  0 mm
09:44 -4.3 °F /  -20.2 °C -12.4 °F /  -24.7 °C 1019.5 in /  34520.3 hPa NNE 24.1 mph /  38.8 km/h 33.8 mph /  54.4 km/h 53 % 0.0 in /  0 mm
09:50 -4.2 °F /  -20.1 °C -12.6 °F /  -24.8 °C 1019.5 in /  34520.3 hPa NNE 25.9 mph /  41.7 km/h 37.0 mph /  59.5 km/h 52 % 0.0 in /  0 mm
09:56 -4.2 °F /  -20.1 °C -12.6 °F /  -24.8 °C 1019.5 in /  34520.3 hPa NE 30.6 mph /  49.2 km/h 43.4 mph /  69.8 km/h 52 % 0.0 in /  0 mm
10:02 -4.1 °F /  -20.1 °C -12.5 °F /  -24.7 °C 1019.5 in /  34520.3 hPa NE 17.7 mph /  28.5 km/h 33.8 mph /  54.4 km/h 52 % 0.0 in /  0 mm
10:08 -4.1 °F /  -20.1 °C -13.0 °F /  -25 °C 1019.5 in /  34520.3 hPa NNE 22.7 mph /  36.5 km/h 45.1 mph /  72.6 km/h 50 % 0.0 in /  0 mm
10:14 -4.0 °F /  -20 °C -12.9 °F /  -24.9 °C 1019.5 in /  34520.3 hPa East 19.5 mph /  31.4 km/h 40.2 mph /  64.7 km/h 50 % 0.0 in /  0 mm
10:20 -3.8 °F /  -19.9 °C -12.5 °F /  -24.7 °C 1019.5 in /  34520.3 hPa East 6.4 mph /  10.3 km/h 30.6 mph /  49.2 km/h 51 % 0.0 in /  0 mm
10:26 -3.8 °F /  -19.9 °C -13.0 °F /  -25 °C 1019.5 in /  34520.3 hPa NNE 20.9 mph /  33.6 km/h 43.4 mph /  69.8 km/h 49 % 0.0 in /  0 mm
10:32 -3.7 °F /  -19.8 °C -12.9 °F /  -24.9 °C 1019.5 in /  34520.3 hPa NE 24.1 mph /  38.8 km/h 43.4 mph /  69.8 km/h 49 % 0.0 in /  0 mm
10:38 -3.7 °F /  -19.8 °C -12.6 °F /  -24.8 °C 1019.5 in /  34520.3 hPa NNE 19.5 mph /  31.4 km/h 33.8 mph /  54.4 km/h 50 % 0.0 in /  0 mm
10:44 -3.7 °F /  -19.8 °C -13.1 °F /  -25.1 °C 1019.5 in /  34520.3 hPa NE 30.6 mph /  49.2 km/h 38.6 mph /  62.1 km/h 48 % 0.0 in /  0 mm
10:50 -3.6 °F /  -19.8 °C -12.8 °F /  -24.9 °C 1019.5 in /  34520.3 hPa NE 27.4 mph /  44.1 km/h 37.0 mph /  59.5 km/h 49 % 0.0 in /  0 mm
10:56 -3.4 °F /  -19.7 °C -12.8 °F /  -24.9 °C 1019.5 in /  34520.3 hPa NE 22.7 mph /  36.5 km/h 32.2 mph /  51.8 km/h 48 % 0.0 in /  0 mm
11:02 -3.3 °F /  -19.6 °C -12.7 °F /  -24.8 °C 1019.5 in /  34520.3 hPa NNE 13.0 mph /  20.9 km/h 38.6 mph /  62.1 km/h 48 % 0.0 in /  0 mm
11:08 -3.3 °F /  -19.6 °C -12.7 °F /  -24.8 °C 1019.5 in /  34520.3 hPa ENE 28.8 mph /  46.3 km/h 30.6 mph /  49.2 km/h 48 % 0.0 in /  0 mm
11:14 -3.2 °F /  -19.6 °C -12.9 °F /  -24.9 °C 1019.5 in /  34520.3 hPa NNE 25.9 mph /  41.7 km/h 37.0 mph /  59.5 km/h 47 % 0.0 in /  0 mm
11:20 -3.3 °F /  -19.6 °C -13.3 °F /  -25.2 °C 1019.2 in /  34510.1 hPa North 19.5 mph /  31.4 km/h 32.2 mph /  51.8 km/h 46 % 0.0 in /  0 mm
11:26 -3.2 °F /  -19.6 °C -13.2 °F /  -25.1 °C 1019.2 in /  34510.1 hPa NNW 19.5 mph /  31.4 km/h 32.2 mph /  51.8 km/h 46 % 0.0 in /  0 mm
11:32 -3.2 °F /  -19.6 °C -13.2 °F /  -25.1 °C 1019.2 in /  34510.1 hPa NE 22.7 mph /  36.5 km/h 38.6 mph /  62.1 km/h 46 % 0.0 in /  0 mm
11:38 -3.2 °F /  -19.6 °C -13.5 °F /  -25.3 °C 1019.2 in /  34510.1 hPa NE 25.9 mph /  41.7 km/h 43.4 mph /  69.8 km/h 45 % 0.0 in /  0 mm
11:44 -2.8 °F /  -19.3 °C -13.1 °F /  -25.1 °C 1019.2 in /  34510.1 hPa NE 22.7 mph /  36.5 km/h 35.4 mph /  57 km/h 45 % 0.0 in /  0 mm
11:50 -2.9 °F /  -19.4 °C -12.9 °F /  -24.9 °C 1019.2 in /  34510.1 hPa East 22.7 mph /  36.5 km/h 37.0 mph /  59.5 km/h 46 % 0.0 in /  0 mm
11:56 -2.9 °F /  -19.4 °C -13.5 °F /  -25.3 °C 1019.5 in /  34520.3 hPa NE 30.6 mph /  49.2 km/h 45.1 mph /  72.6 km/h 44 % 0.0 in /  0 mm
12:02 -2.7 °F /  -19.3 °C -13.3 °F /  -25.2 °C 1019.5 in /  34520.3 hPa NE 9.7 mph /  15.6 km/h 33.8 mph /  54.4 km/h 44 % 0.0 in /  0 mm
12:08 -2.6 °F /  -19.2 °C -13.5 °F /  -25.3 °C 1019.2 in /  34510.1 hPa East 13.0 mph /  20.9 km/h 33.8 mph /  54.4 km/h 43 % 0.0 in /  0 mm
12:14 -2.4 °F /  -19.1 °C -13.3 °F /  -25.2 °C 1019.2 in /  34510.1 hPa ENE 13.0 mph /  20.9 km/h 25.7 mph /  41.4 km/h 43 % 0.0 in /  0 mm
12:20 -2.3 °F /  -19.1 °C -13.8 °F /  -25.4 °C 1019.2 in /  34510.1 hPa ENE 14.3 mph /  23 km/h 29.0 mph /  46.7 km/h 41 % 0.0 in /  0 mm
12:26 -2.5 °F /  -19.2 °C -14.3 °F /  -25.7 °C 1019.2 in /  34510.1 hPa East 13.0 mph /  20.9 km/h 40.2 mph /  64.7 km/h 40 % 0.0 in /  0 mm
12:32 -2.4 °F /  -19.1 °C -13.9 °F /  -25.5 °C 1019.5 in /  34520.3 hPa NNE 16.3 mph /  26.2 km/h 37.0 mph /  59.5 km/h 41 % 0.0 in /  0 mm
12:38 -2.4 °F /  -19.1 °C -13.6 °F /  -25.3 °C 1019.2 in /  34510.1 hPa NNE 22.7 mph /  36.5 km/h 30.6 mph /  49.2 km/h 42 % 0.3 in /  7.62 mm
12:44 -2.3 °F /  -19.1 °C -13.8 °F /  -25.4 °C 1019.2 in /  34510.1 hPa NNE 37.0 mph /  59.5 km/h 41.8 mph /  67.3 km/h 41 % 0.3 in /  7.62 mm
12:50 -2.5 °F /  -19.2 °C -14.3 °F /  -25.7 °C 1019.2 in /  34510.1 hPa North 24.1 mph /  38.8 km/h 35.4 mph /  57 km/h 40 % 0.3 in /  7.62 mm
13:02 -2.1 °F /  -18.9 °C -13.3 °F /  -25.2 °C 1019.2 in /  34510.1 hPa NW 20.9 mph /  33.6 km/h 33.8 mph /  54.4 km/h 42 % 0.3 in /  7.62 mm
13:08 -2.0 °F /  -18.9 °C -13.2 °F /  -25.1 °C 1019.2 in /  34510.1 hPa NE 13.0 mph /  20.9 km/h 30.6 mph /  49.2 km/h 42 % 0.3 in /  7.62 mm
13:14 -1.8 °F /  -18.8 °C -13.3 °F /  -25.2 °C 1019.2 in /  34510.1 hPa NE 24.1 mph /  38.8 km/h 41.8 mph /  67.3 km/h 41 % 0.3 in /  7.62 mm
13:20 -2.2 °F /  -19 °C -14.3 °F /  -25.7 °C 1019.2 in /  34510.1 hPa NNE 24.1 mph /  38.8 km/h 45.1 mph /  72.6 km/h 39 % 0.3 in /  7.62 mm
13:26 -2.2 °F /  -19 °C -13.4 °F /  -25.2 °C 1019.2 in /  34510.1 hPa NNE 27.4 mph /  44.1 km/h 43.4 mph /  69.8 km/h 42 % 0.3 in /  7.62 mm
13:33 -2.1 °F /  -18.9 °C -13.6 °F /  -25.3 °C 1019.2 in /  34510.1 hPa NE 27.4 mph /  44.1 km/h 35.4 mph /  57 km/h 41 % 0.3 in /  7.62 mm
13:39 -2.1 °F /  -18.9 °C -13.6 °F /  -25.3 °C 1019.2 in /  34510.1 hPa NNE 20.9 mph /  33.6 km/h 37.0 mph /  59.5 km/h 41 % 0.0 in /  0 mm
13:45 -1.8 °F /  -18.8 °C -13.0 °F /  -25 °C 1019.2 in /  34510.1 hPa NE 41.8 mph /  67.3 km/h 41.8 mph /  67.3 km/h 42 % 0.0 in /  0 mm
13:51 -2.0 °F /  -18.9 °C -13.2 °F /  -25.1 °C 1018.8 in /  34496.6 hPa NNE 22.7 mph /  36.5 km/h 40.2 mph /  64.7 km/h 42 % 0.0 in /  0 mm
13:57 -1.7 °F /  -18.7 °C -12.4 °F /  -24.7 °C 1019.2 in /  34510.1 hPa NNE 7.9 mph /  12.7 km/h 29.0 mph /  46.7 km/h 44 % 0.0 in /  0 mm
14:03 -1.7 °F /  -18.7 °C -12.6 °F /  -24.8 °C 1019.2 in /  34510.1 hPa East 6.4 mph /  10.3 km/h 30.6 mph /  49.2 km/h 43 % 0.0 in /  0 mm
14:09 -1.6 °F /  -18.7 °C -12.6 °F /  -24.8 °C 1019.2 in /  34510.1 hPa NE 13.0 mph /  20.9 km/h 33.8 mph /  54.4 km/h 43 % 0.0 in /  0 mm
14:15 -1.7 °F /  -18.7 °C -12.6 °F /  -24.8 °C 1019.2 in /  34510.1 hPa NE 35.2 mph /  56.6 km/h 38.6 mph /  62.1 km/h 43 % 0.0 in /  0 mm
14:21 -1.9 °F /  -18.8 °C -12.8 °F /  -24.9 °C 1018.8 in /  34496.6 hPa NE 32.0 mph /  51.5 km/h 35.4 mph /  57 km/h 43 % 0.0 in /  0 mm
14:27 -1.7 °F /  -18.7 °C -12.1 °F /  -24.5 °C 1019.2 in /  34510.1 hPa NE 24.1 mph /  38.8 km/h 32.2 mph /  51.8 km/h 45 % 0.0 in /  0 mm
14:33 -1.7 °F /  -18.7 °C -12.4 °F /  -24.7 °C 1019.2 in /  34510.1 hPa NE 20.9 mph /  33.6 km/h 29.0 mph /  46.7 km/h 44 % 0.0 in /  0 mm
14:39 -1.7 °F /  -18.7 °C -12.6 °F /  -24.8 °C 1018.8 in /  34496.6 hPa NNE 24.1 mph /  38.8 km/h 32.2 mph /  51.8 km/h 43 % 0.0 in /  0 mm
14:45 -1.7 °F /  -18.7 °C -12.4 °F /  -24.7 °C 1018.8 in /  34496.6 hPa NE 13.0 mph /  20.9 km/h 25.7 mph /  41.4 km/h 44 % 0.0 in /  0 mm
14:51 -1.7 °F /  -18.7 °C -12.4 °F /  -24.7 °C 1018.8 in /  34496.6 hPa ENE 37.0 mph /  59.5 km/h 37.0 mph /  59.5 km/h 44 % 0.0 in /  0 mm
14:57 -1.7 °F /  -18.7 °C -12.1 °F /  -24.5 °C 1018.8 in /  34496.6 hPa NNE 28.8 mph /  46.3 km/h 29.0 mph /  46.7 km/h 45 % 0.0 in /  0 mm
15:03 -1.6 °F /  -18.7 °C -12.3 °F /  -24.6 °C 1018.8 in /  34496.6 hPa East 16.3 mph /  26.2 km/h 30.6 mph /  49.2 km/h 44 % 0.0 in /  0 mm
15:09 -1.6 °F /  -18.7 °C -12.3 °F /  -24.6 °C 1018.8 in /  34496.6 hPa NE 14.3 mph /  23 km/h 30.6 mph /  49.2 km/h 44 % 0.0 in /  0 mm
15:15 -1.6 °F /  -18.7 °C -12.3 °F /  -24.6 °C 1018.8 in /  34496.6 hPa North 19.5 mph /  31.4 km/h 32.2 mph /  51.8 km/h 44 % 0.0 in /  0 mm
15:21 -1.7 °F /  -18.7 °C -12.9 °F /  -24.9 °C 1018.8 in /  34496.6 hPa North 17.7 mph /  28.5 km/h 35.4 mph /  57 km/h 42 % 0.0 in /  0 mm
15:27 -1.7 °F /  -18.7 °C -12.9 °F /  -24.9 °C 1018.8 in /  34496.6 hPa NE 13.0 mph /  20.9 km/h 33.8 mph /  54.4 km/h 42 % 0.0 in /  0 mm
15:33 -1.7 °F /  -18.7 °C -12.9 °F /  -24.9 °C 1018.8 in /  34496.6 hPa NNE 25.9 mph /  41.7 km/h 33.8 mph /  54.4 km/h 42 % 0.0 in /  0 mm
15:39 -1.8 °F /  -18.8 °C -13.6 °F /  -25.3 °C 1018.8 in /  34496.6 hPa NE 17.7 mph /  28.5 km/h 33.8 mph /  54.4 km/h 40 % 0.0 in /  0 mm
15:45 -1.6 °F /  -18.7 °C -12.8 °F /  -24.9 °C 1018.5 in /  34486.4 hPa NE 25.9 mph /  41.7 km/h 27.4 mph /  44.1 km/h 42 % 0.0 in /  0 mm
15:51 -1.6 °F /  -18.7 °C -13.1 °F /  -25.1 °C 1018.5 in /  34486.4 hPa NNE 30.6 mph /  49.2 km/h 38.6 mph /  62.1 km/h 41 % 0.0 in /  0 mm
15:57 -1.5 °F /  -18.6 °C -12.5 °F /  -24.7 °C 1018.5 in /  34486.4 hPa NE 19.5 mph /  31.4 km/h 27.4 mph /  44.1 km/h 43 % 0.0 in /  0 mm
16:03 -1.7 °F /  -18.7 °C -12.9 °F /  -24.9 °C 1018.5 in /  34486.4 hPa ENE 25.9 mph /  41.7 km/h 38.6 mph /  62.1 km/h 42 % 0.0 in /  0 mm
16:09 -1.8 °F /  -18.8 °C -13.0 °F /  -25 °C 1018.5 in /  34486.4 hPa NNE 16.3 mph /  26.2 km/h 32.2 mph /  51.8 km/h 42 % 0.0 in /  0 mm
16:15 -1.6 °F /  -18.7 °C -12.3 °F /  -24.6 °C 1018.5 in /  34486.4 hPa NNE 4.7 mph /  7.6 km/h 30.6 mph /  49.2 km/h 44 % 0.0 in /  0 mm
16:21 -1.6 °F /  -18.7 °C -12.6 °F /  -24.8 °C 1018.2 in /  34476.3 hPa North 9.7 mph /  15.6 km/h 40.2 mph /  64.7 km/h 43 % 0.0 in /  0 mm
16:27 -1.8 °F /  -18.8 °C -13.3 °F /  -25.2 °C 1018.5 in /  34486.4 hPa NNE 27.4 mph /  44.1 km/h 41.8 mph /  67.3 km/h 41 % 0.0 in /  0 mm
16:33 -1.8 °F /  -18.8 °C -13.0 °F /  -25 °C 1018.5 in /  34486.4 hPa NNE 16.3 mph /  26.2 km/h 30.6 mph /  49.2 km/h 42 % 0.0 in /  0 mm
16:39 -1.8 °F /  -18.8 °C -12.7 °F /  -24.8 °C 1018.5 in /  34486.4 hPa ENE 14.3 mph /  23 km/h 32.2 mph /  51.8 km/h 43 % 0.0 in /  0 mm
16:45 -1.9 °F /  -18.8 °C -12.8 °F /  -24.9 °C 1018.5 in /  34486.4 hPa NNE 25.9 mph /  41.7 km/h 33.8 mph /  54.4 km/h 43 % 0.0 in /  0 mm
16:51 -1.9 °F /  -18.8 °C -12.8 °F /  -24.9 °C 1018.5 in /  34486.4 hPa North 24.1 mph /  38.8 km/h 33.8 mph /  54.4 km/h 43 % 0.0 in /  0 mm
16:57 -1.9 °F /  -18.8 °C -12.8 °F /  -24.9 °C 1018.2 in /  34476.3 hPa NNW 27.4 mph /  44.1 km/h 41.8 mph /  67.3 km/h 43 % 0.0 in /  0 mm
17:03 -1.9 °F /  -18.8 °C -12.8 °F /  -24.9 °C 1018.5 in /  34486.4 hPa ENE 6.4 mph /  10.3 km/h 19.3 mph /  31.1 km/h 43 % 0.0 in /  0 mm
17:09 -2.0 °F /  -18.9 °C -13.2 °F /  -25.1 °C 1018.5 in /  34486.4 hPa ENE 13.0 mph /  20.9 km/h 33.8 mph /  54.4 km/h 42 % 0.0 in /  0 mm
17:15 -2.1 °F /  -18.9 °C -13.0 °F /  -25 °C 1018.2 in /  34476.3 hPa North 17.7 mph /  28.5 km/h 33.8 mph /  54.4 km/h 43 % 0.0 in /  0 mm
17:21 -2.2 °F /  -19 °C -13.1 °F /  -25.1 °C 1018.5 in /  34486.4 hPa NE 7.9 mph /  12.7 km/h 32.2 mph /  51.8 km/h 43 % 0.0 in /  0 mm
17:27 -2.2 °F /  -19 °C -13.1 °F /  -25.1 °C 1018.5 in /  34486.4 hPa NE 16.3 mph /  26.2 km/h 27.4 mph /  44.1 km/h 43 % 0.0 in /  0 mm
17:33 -2.2 °F /  -19 °C -13.1 °F /  -25.1 °C 1018.5 in /  34486.4 hPa NE 6.4 mph /  10.3 km/h 25.7 mph /  41.4 km/h 43 % 0.0 in /  0 mm
17:39 -2.2 °F /  -19 °C -12.8 °F /  -24.9 °C 1018.5 in /  34486.4 hPa ENE 25.9 mph /  41.7 km/h 37.0 mph /  59.5 km/h 44 % 0.0 in /  0 mm
17:45 -2.3 °F /  -19.1 °C -12.9 °F /  -24.9 °C 1018.5 in /  34486.4 hPa ENE 24.1 mph /  38.8 km/h 32.2 mph /  51.8 km/h 44 % 0.0 in /  0 mm
17:51 -2.4 °F /  -19.1 °C -12.7 °F /  -24.8 °C 1018.5 in /  34486.4 hPa NNE 14.3 mph /  23 km/h 27.4 mph /  44.1 km/h 45 % 0.0 in /  0 mm
17:57 -2.4 °F /  -19.1 °C -13.0 °F /  -25 °C 1018.5 in /  34486.4 hPa NNE 25.9 mph /  41.7 km/h 35.4 mph /  57 km/h 44 % 0.0 in /  0 mm
18:03 -2.6 °F /  -19.2 °C -12.9 °F /  -24.9 °C 1018.5 in /  34486.4 hPa NE 25.9 mph /  41.7 km/h 27.4 mph /  44.1 km/h 45 % 0.0 in /  0 mm
18:09 -2.7 °F /  -19.3 °C -13.3 °F /  -25.2 °C 1018.5 in /  34486.4 hPa NE 13.0 mph /  20.9 km/h 37.0 mph /  59.5 km/h 44 % 0.0 in /  0 mm
18:15 -2.8 °F /  -19.3 °C -13.1 °F /  -25.1 °C 1018.5 in /  34486.4 hPa North 7.9 mph /  12.7 km/h 19.3 mph /  31.1 km/h 45 % 0.0 in /  0 mm
18:21 -2.8 °F /  -19.3 °C -13.4 °F /  -25.2 °C 1018.5 in /  34486.4 hPa NNE 14.3 mph /  23 km/h 35.4 mph /  57 km/h 44 % 0.0 in /  0 mm
18:27 -2.9 °F /  -19.4 °C -13.5 °F /  -25.3 °C 1018.5 in /  34486.4 hPa ENE 14.3 mph /  23 km/h 40.2 mph /  64.7 km/h 44 % 0.0 in /  0 mm
18:33 -3.0 °F /  -19.4 °C -13.5 °F /  -25.3 °C 1018.5 in /  34486.4 hPa NE 22.7 mph /  36.5 km/h 41.8 mph /  67.3 km/h 44 % 0.0 in /  0 mm
18:39 -3.1 °F /  -19.5 °C -13.6 °F /  -25.3 °C 1018.8 in /  34496.6 hPa NE 25.9 mph /  41.7 km/h 29.0 mph /  46.7 km/h 44 % 0.0 in /  0 mm
18:45 -3.1 °F /  -19.5 °C -13.6 °F /  -25.3 °C 1018.8 in /  34496.6 hPa NNE 14.3 mph /  23 km/h 32.2 mph /  51.8 km/h 44 % 0.0 in /  0 mm
18:51 -3.2 °F /  -19.6 °C -13.5 °F /  -25.3 °C 1018.8 in /  34496.6 hPa NNE 9.7 mph /  15.6 km/h 19.3 mph /  31.1 km/h 45 % 0.0 in /  0 mm
18:57 -3.2 °F /  -19.6 °C -13.5 °F /  -25.3 °C 1018.8 in /  34496.6 hPa NE 19.5 mph /  31.4 km/h 24.1 mph /  38.8 km/h 45 % 0.0 in /  0 mm
19:03 -3.2 °F /  -19.6 °C -13.5 °F /  -25.3 °C 1018.8 in /  34496.6 hPa NE 24.1 mph /  38.8 km/h 33.8 mph /  54.4 km/h 45 % 0.0 in /  0 mm
19:09 -3.3 °F /  -19.6 °C -13.5 °F /  -25.3 °C 1018.8 in /  34496.6 hPa NE 14.3 mph /  23 km/h 30.6 mph /  49.2 km/h 45 % 0.0 in /  0 mm
19:15 -3.3 °F /  -19.6 °C -13.5 °F /  -25.3 °C 1018.8 in /  34496.6 hPa NE 16.3 mph /  26.2 km/h 24.1 mph /  38.8 km/h 45 % 0.0 in /  0 mm
19:21 -3.4 °F /  -19.7 °C -13.6 °F /  -25.3 °C 1018.8 in /  34496.6 hPa NNE 19.5 mph /  31.4 km/h 24.1 mph /  38.8 km/h 45 % 0.0 in /  0 mm
19:27 -3.4 °F /  -19.7 °C -13.6 °F /  -25.3 °C 1018.8 in /  34496.6 hPa NNE 24.1 mph /  38.8 km/h 25.7 mph /  41.4 km/h 45 % 0.0 in /  0 mm
19:33 -3.4 °F /  -19.7 °C -13.4 °F /  -25.2 °C 1018.8 in /  34496.6 hPa NNE 28.8 mph /  46.3 km/h 32.2 mph /  51.8 km/h 46 % 0.0 in /  0 mm
19:39 -3.4 °F /  -19.7 °C -13.4 °F /  -25.2 °C 1018.8 in /  34496.6 hPa NNE 22.7 mph /  36.5 km/h 27.4 mph /  44.1 km/h 46 % 0.0 in /  0 mm
19:45 -3.5 °F /  -19.7 °C -13.5 °F /  -25.3 °C 1018.8 in /  34496.6 hPa NNE 24.1 mph /  38.8 km/h 32.2 mph /  51.8 km/h 46 % 0.0 in /  0 mm
19:51 -3.6 °F /  -19.8 °C -13.5 °F /  -25.3 °C 1018.8 in /  34496.6 hPa ENE 11.1 mph /  17.9 km/h 25.7 mph /  41.4 km/h 46 % 0.0 in /  0 mm
19:57 -3.6 °F /  -19.8 °C -13.5 °F /  -25.3 °C 1018.8 in /  34496.6 hPa NNE 17.7 mph /  28.5 km/h 25.7 mph /  41.4 km/h 46 % 0.0 in /  0 mm
20:03 -3.6 °F /  -19.8 °C -13.5 °F /  -25.3 °C 1018.8 in /  34496.6 hPa NNE 17.7 mph /  28.5 km/h 30.6 mph /  49.2 km/h 46 % 0.0 in /  0 mm
20:09 -3.7 °F /  -19.8 °C -13.4 °F /  -25.2 °C 1018.8 in /  34496.6 hPa NNE 9.7 mph /  15.6 km/h 20.9 mph /  33.6 km/h 47 % 0.0 in /  0 mm
20:15 -3.8 °F /  -19.9 °C -13.2 °F /  -25.1 °C 1018.8 in /  34496.6 hPa NE 14.3 mph /  23 km/h 19.3 mph /  31.1 km/h 48 % 0.0 in /  0 mm
20:21 -3.8 °F /  -19.9 °C -13.5 °F /  -25.3 °C 1018.8 in /  34496.6 hPa NNW 4.7 mph /  7.6 km/h 19.3 mph /  31.1 km/h 47 % 0.0 in /  0 mm
20:27 -3.8 °F /  -19.9 °C -13.2 °F /  -25.1 °C 1018.8 in /  34496.6 hPa NNE 19.5 mph /  31.4 km/h 33.8 mph /  54.4 km/h 48 % 0.0 in /  0 mm
20:33 -3.8 °F /  -19.9 °C -13.0 °F /  -25 °C 1018.8 in /  34496.6 hPa NNE 27.4 mph /  44.1 km/h 35.4 mph /  57 km/h 49 % 0.0 in /  0 mm
20:39 -3.9 °F /  -19.9 °C -13.6 °F /  -25.3 °C 1018.8 in /  34496.6 hPa NE 22.7 mph /  36.5 km/h 37.0 mph /  59.5 km/h 47 % 0.0 in /  0 mm
20:45 -4.0 °F /  -20 °C -13.4 °F /  -25.2 °C 1018.8 in /  34496.6 hPa NNE 20.9 mph /  33.6 km/h 32.2 mph /  51.8 km/h 48 % 0.0 in /  0 mm
20:51 -4.1 °F /  -20.1 °C -13.5 °F /  -25.3 °C 1018.8 in /  34496.6 hPa NNE 20.9 mph /  33.6 km/h 43.4 mph /  69.8 km/h 48 % 0.0 in /  0 mm
20:57 -4.1 °F /  -20.1 °C -13.7 °F /  -25.4 °C 1018.8 in /  34496.6 hPa NNE 27.4 mph /  44.1 km/h 40.2 mph /  64.7 km/h 47 % 0.0 in /  0 mm
21:03 -4.1 °F /  -20.1 °C -13.5 °F /  -25.3 °C 1018.8 in /  34496.6 hPa NNE 25.9 mph /  41.7 km/h 40.2 mph /  64.7 km/h 48 % 0.0 in /  0 mm
21:09 -4.2 °F /  -20.1 °C -13.3 °F /  -25.2 °C 1018.8 in /  34496.6 hPa NE 37.0 mph /  59.5 km/h 40.2 mph /  64.7 km/h 49 % 0.0 in /  0 mm
21:15 -4.3 °F /  -20.2 °C -13.4 °F /  -25.2 °C 1018.8 in /  34496.6 hPa NNE 20.9 mph /  33.6 km/h 30.6 mph /  49.2 km/h 49 % 0.0 in /  0 mm
21:21 -4.3 °F /  -20.2 °C -13.2 °F /  -25.1 °C 1018.8 in /  34496.6 hPa NE 9.7 mph /  15.6 km/h 35.4 mph /  57 km/h 50 % 0.0 in /  0 mm
21:27 -4.4 °F /  -20.2 °C -13.3 °F /  -25.2 °C 1018.8 in /  34496.6 hPa ENE 25.9 mph /  41.7 km/h 25.9 mph /  41.7 km/h 50 % 0.0 in /  0 mm
21:33 -4.5 °F /  -20.3 °C -13.1 °F /  -25.1 °C 1018.8 in /  34496.6 hPa East 11.1 mph /  17.9 km/h 25.7 mph /  41.4 km/h 51 % 0.0 in /  0 mm
21:39 -4.5 °F /  -20.3 °C -13.1 °F /  -25.1 °C 1019.2 in /  34510.1 hPa North 17.7 mph /  28.5 km/h 25.7 mph /  41.4 km/h 51 % 0.0 in /  0 mm
21:48 -4.5 °F /  -20.3 °C -13.4 °F /  -25.2 °C 1019.2 in /  34510.1 hPa North 14.3 mph /  23 km/h 29.0 mph /  46.7 km/h 50 % 0.0 in /  0 mm
21:55 -4.6 °F /  -20.3 °C -13.2 °F /  -25.1 °C 1019.2 in /  34510.1 hPa NE 13.0 mph /  20.9 km/h 30.6 mph /  49.2 km/h 51 % 0.0 in /  0 mm
22:01 -4.7 °F /  -20.4 °C -13.1 °F /  -25.1 °C 1019.2 in /  34510.1 hPa NE 11.1 mph /  17.9 km/h 24.1 mph /  38.8 km/h 52 % 0.0 in /  0 mm
22:07 -4.7 °F /  -20.4 °C -13.3 °F /  -25.2 °C 1019.2 in /  34510.1 hPa NNE 24.1 mph /  38.8 km/h 29.0 mph /  46.7 km/h 51 % 0.0 in /  0 mm
22:13 -4.7 °F /  -20.4 °C -13.1 °F /  -25.1 °C 1019.2 in /  34510.1 hPa North 11.1 mph /  17.9 km/h 24.1 mph /  38.8 km/h 52 % 0.0 in /  0 mm
22:19 -4.8 °F /  -20.4 °C -12.9 °F /  -24.9 °C 1019.2 in /  34510.1 hPa NE 14.3 mph /  23 km/h 19.3 mph /  31.1 km/h 53 % 0.0 in /  0 mm
22:25 -4.8 °F /  -20.4 °C -12.9 °F /  -24.9 °C 1019.2 in /  34510.1 hPa ENE 7.9 mph /  12.7 km/h 19.3 mph /  31.1 km/h 53 % 0.0 in /  0 mm
22:31 -4.9 °F /  -20.5 °C -13.0 °F /  -25 °C 1019.2 in /  34510.1 hPa NE 9.7 mph /  15.6 km/h 20.9 mph /  33.6 km/h 53 % 0.0 in /  0 mm
22:37 -4.9 °F /  -20.5 °C -13.0 °F /  -25 °C 1018.8 in /  34496.6 hPa NNE 13.0 mph /  20.9 km/h 25.7 mph /  41.4 km/h 53 % 0.0 in /  0 mm
22:43 -4.9 °F /  -20.5 °C -12.8 °F /  -24.9 °C 1018.8 in /  34496.6 hPa NE 24.1 mph /  38.8 km/h 27.4 mph /  44.1 km/h 54 % 0.0 in /  0 mm
22:49 -4.9 °F /  -20.5 °C -12.8 °F /  -24.9 °C 1018.8 in /  34496.6 hPa ENE 20.9 mph /  33.6 km/h 29.0 mph /  46.7 km/h 54 % 0.0 in /  0 mm
22:55 -5.0 °F /  -20.6 °C -12.9 °F /  -24.9 °C 1018.8 in /  34496.6 hPa NNE 20.9 mph /  33.6 km/h 25.7 mph /  41.4 km/h 54 % 0.0 in /  0 mm
23:01 -5.1 °F /  -20.6 °C -12.7 °F /  -24.8 °C 1018.8 in /  34496.6 hPa North 4.7 mph /  7.6 km/h 22.5 mph /  36.2 km/h 55 % 0.0 in /  0 mm
23:07 -5.2 °F /  -20.7 °C -12.6 °F /  -24.8 °C 1018.8 in /  34496.6 hPa NE 11.1 mph /  17.9 km/h 24.1 mph /  38.8 km/h 56 % 0.0 in /  0 mm
23:13 -5.2 °F /  -20.7 °C -12.6 °F /  -24.8 °C 1018.8 in /  34496.6 hPa NE 20.9 mph /  33.6 km/h 20.9 mph /  33.6 km/h 56 % 0.0 in /  0 mm
23:19 -5.2 °F /  -20.7 °C -12.6 °F /  -24.8 °C 1018.8 in /  34496.6 hPa NNE 14.3 mph /  23 km/h 20.9 mph /  33.6 km/h 56 % 0.0 in /  0 mm
23:25 -5.3 °F /  -20.7 °C -12.7 °F /  -24.8 °C 1018.8 in /  34496.6 hPa North 14.3 mph /  23 km/h 35.4 mph /  57 km/h 56 % 0.0 in /  0 mm
23:31 -5.3 °F /  -20.7 °C -12.7 °F /  -24.8 °C 1018.8 in /  34496.6 hPa NE 19.5 mph /  31.4 km/h 27.4 mph /  44.1 km/h 56 % 0.0 in /  0 mm
23:37 -5.3 °F /  -20.7 °C -12.7 °F /  -24.8 °C 1018.8 in /  34496.6 hPa NNE 22.7 mph /  36.5 km/h 32.2 mph /  51.8 km/h 56 % 0.0 in /  0 mm
23:43 -5.4 °F /  -20.8 °C -12.6 °F /  -24.8 °C 1018.8 in /  34496.6 hPa NNE 19.5 mph /  31.4 km/h 29.0 mph /  46.7 km/h 57 % 0.0 in /  0 mm
23:49 -5.4 °F /  -20.8 °C -12.6 °F /  -24.8 °C 1018.8 in /  34496.6 hPa NE 14.3 mph /  23 km/h 27.4 mph /  44.1 km/h 57 % 0.0 in /  0 mm
23:55 -5.4 °F /  -20.8 °C -12.4 °F /  -24.7 °C 1018.8 in /  34496.6 hPa NNE 6.4 mph /  10.3 km/h 24.1 mph /  38.8 km/h 58 % 0.0 in /  0 mm
Meteo18
Compliments of Weather Underground - 4 mb

Script developed by  Jim McMurry - jmcmurry@mwt.net Adapted for the template by  Wim van der Kuil - Leuven-Template.eu

You find our weather info also at:

European Weather Network

Weather Underground

Equipment we use:

Weather-station
Davis Vue

Weather-program
Meteobridge

Weather-server
Raspberry PI 2 B+

Provider
1 and 1

Davis Vue

Meteobridge

Raspberry PI 2 B+

1 and 1